createdAt,value
2023-09-18T00:00:18.533Z,74.29
2023-09-18T00:02:45.018Z,74.87
2023-09-18T00:05:11.743Z,75.40
2023-09-18T00:07:38.169Z,74.28
2023-09-18T00:10:04.966Z,74.12
2023-09-18T00:12:31.367Z,74.25
2023-09-18T00:14:57.830Z,74.48
2023-09-18T00:17:25.183Z,74.31
2023-09-18T00:19:52.850Z,74.75
2023-09-18T00:22:19.464Z,75.04
2023-09-18T00:24:46.185Z,75.14
2023-09-18T00:27:12.556Z,75.22
2023-09-18T00:29:39.056Z,74.40
2023-09-18T00:32:06.205Z,74.32
2023-09-18T00:34:35.877Z,73.20
2023-09-18T00:37:02.797Z,73.98
2023-09-18T00:39:29.264Z,74.62
2023-09-18T00:41:55.899Z,74.07
2023-09-18T00:44:23.227Z,74.85
2023-09-18T00:46:50.748Z,75.62
2023-09-18T00:49:19.996Z,74.63
2023-09-18T00:51:48.325Z,75.15
2023-09-18T00:54:19.301Z,75.87
2023-09-18T00:56:49.113Z,75.27
2023-09-18T00:59:15.844Z,75.00
2023-09-18T01:01:43.393Z,75.68
2023-09-18T01:04:10.920Z,75.28
2023-09-18T01:06:37.521Z,75.57
2023-09-18T01:09:13.186Z,75.88
2023-09-18T01:12:00.182Z,75.18
2023-09-18T01:14:33.255Z,74.93
2023-09-18T01:17:03.053Z,75.34
2023-09-18T01:19:47.592Z,74.74
2023-09-18T01:22:17.516Z,75.34
2023-09-18T01:24:45.614Z,75.44
2023-09-18T01:27:18.074Z,74.52
2023-09-18T01:29:48.377Z,75.82
2023-09-18T01:32:15.566Z,75.02
2023-09-18T01:34:46.558Z,75.37
2023-09-18T01:37:14.881Z,74.73
2023-09-18T01:39:42.896Z,75.23
2023-09-18T01:42:12.700Z,75.67
2023-09-18T01:44:39.537Z,75.29
2023-09-18T01:47:09.913Z,74.97
2023-09-18T01:49:39.077Z,75.59
2023-09-18T01:52:07.281Z,75.72
2023-09-18T01:54:34.882Z,75.72
2023-09-18T01:57:02.573Z,76.20
2023-09-18T01:59:29.396Z,74.86
2023-09-18T02:01:56.790Z,75.33
2023-09-18T02:04:28.451Z,75.76
2023-09-18T02:07:11.149Z,75.83
2023-09-18T02:09:37.818Z,75.53
2023-09-18T02:12:05.390Z,75.68
2023-09-18T02:14:32.557Z,75.92
2023-09-18T02:16:59.287Z,75.52
2023-09-18T02:19:25.886Z,75.54
2023-09-18T02:21:52.438Z,75.85
2023-09-18T02:24:19.134Z,76.37
2023-09-18T02:26:46.391Z,75.85
2023-09-18T02:29:15.113Z,76.14
2023-09-18T02:31:42.001Z,75.73
2023-09-18T02:34:10.089Z,75.96
2023-09-18T02:36:36.925Z,76.47
2023-09-18T02:39:03.850Z,76.03
2023-09-18T02:41:30.621Z,76.09
2023-09-18T02:43:57.105Z,75.86
2023-09-18T02:46:23.765Z,75.94
2023-09-18T02:48:50.689Z,76.16
2023-09-18T02:51:17.761Z,76.16
2023-09-18T02:53:44.440Z,76.27
2023-09-18T02:56:11.105Z,76.25
2023-09-18T02:58:37.713Z,76.59
2023-09-18T03:01:06.374Z,76.26
2023-09-18T03:03:33.164Z,76.02
2023-09-18T03:06:04.081Z,76.65
2023-09-18T03:08:30.812Z,77.24
2023-09-18T03:10:57.759Z,76.82
2023-09-18T03:13:24.403Z,76.71
2023-09-18T03:15:51.017Z,76.99
2023-09-18T03:18:17.683Z,77.12
2023-09-18T03:20:44.276Z,77.16
2023-09-18T03:23:11.058Z,77.40
2023-09-18T03:25:49.154Z,77.72
2023-09-18T03:28:19.178Z,77.69
2023-09-18T03:30:45.972Z,77.53
2023-09-18T03:33:12.561Z,77.80
2023-09-18T03:35:50.440Z,78.28
2023-09-18T03:38:17.654Z,77.88
2023-09-18T03:40:44.640Z,78.16
2023-09-18T03:43:13.487Z,78.14
2023-09-18T03:45:42.997Z,78.19
2023-09-18T03:48:10.639Z,78.49
2023-09-18T03:50:37.809Z,78.31
2023-09-18T03:53:04.581Z,78.09
2023-09-18T03:55:31.337Z,77.84
2023-09-18T03:57:58.315Z,78.28
2023-09-18T04:00:25.166Z,78.34
2023-09-18T04:02:51.975Z,78.18
2023-09-18T04:05:18.585Z,77.67
2023-09-18T04:07:47.460Z,78.02
2023-09-18T04:10:24.593Z,77.89
2023-09-18T04:12:52.866Z,78.24
2023-09-18T04:15:20.468Z,78.00
2023-09-18T04:17:47.619Z,77.76
2023-09-18T04:20:14.896Z,77.77
2023-09-18T04:22:46.840Z,77.62
2023-09-18T04:25:14.337Z,77.46
2023-09-18T04:27:40.866Z,77.35
2023-09-18T04:30:10.471Z,77.88
2023-09-18T04:32:41.567Z,77.92
2023-09-18T04:35:09.699Z,77.23
2023-09-18T04:37:39.191Z,77.01
2023-09-18T04:40:11.095Z,77.47
2023-09-18T04:42:39.905Z,77.11
2023-09-18T04:45:07.031Z,77.00
2023-09-18T04:47:33.799Z,76.76
2023-09-18T04:50:00.382Z,76.96
2023-09-18T04:52:26.918Z,76.52
2023-09-18T04:54:53.559Z,76.53
2023-09-18T04:57:20.062Z,76.37
2023-09-18T04:59:46.714Z,76.58
2023-09-18T05:02:13.315Z,76.72
2023-09-18T05:04:39.924Z,76.66
2023-09-18T05:07:06.410Z,76.89
2023-09-18T05:09:33.692Z,76.62
2023-09-18T05:12:00.226Z,76.42
2023-09-18T05:14:27.137Z,77.13
2023-09-18T05:16:53.822Z,76.65
2023-09-18T05:19:20.452Z,76.45
2023-09-18T05:21:47.627Z,76.43
2023-09-18T05:24:14.245Z,76.37
2023-09-18T05:26:40.783Z,76.24
2023-09-18T05:29:07.364Z,76.49
2023-09-18T05:31:33.966Z,76.54
2023-09-18T05:34:00.516Z,76.26
2023-09-18T05:36:29.604Z,76.26
2023-09-18T05:38:57.183Z,76.08
2023-09-18T05:41:27.451Z,76.17
2023-09-18T05:43:54.851Z,76.22
2023-09-18T05:46:21.383Z,76.43
2023-09-18T05:48:47.895Z,76.08
2023-09-18T05:51:14.401Z,75.93
2023-09-18T05:53:40.989Z,75.68
2023-09-18T05:56:07.602Z,75.52
2023-09-18T05:58:34.243Z,75.66
2023-09-18T06:01:01.743Z,75.40
2023-09-18T06:03:31.635Z,74.92
2023-09-18T06:05:58.570Z,74.95
2023-09-18T06:08:27.458Z,74.80
2023-09-18T06:10:55.237Z,75.25
2023-09-18T06:13:22.231Z,74.64
2023-09-18T06:15:49.428Z,74.94
2023-09-18T06:18:16.007Z,74.66
2023-09-18T06:20:42.648Z,75.52
2023-09-18T06:23:09.246Z,74.51
2023-09-18T06:25:35.834Z,73.78
2023-09-18T06:28:04.472Z,72.97
2023-09-18T06:30:32.210Z,72.49
2023-09-18T06:32:58.861Z,71.32
2023-09-18T06:35:25.413Z,71.08
2023-09-18T06:37:52.171Z,70.09
2023-09-18T06:40:18.641Z,70.19
2023-09-18T06:42:45.370Z,68.59
2023-09-18T06:45:12.396Z,68.72
2023-09-18T06:47:42.062Z,67.90
2023-09-18T06:50:08.742Z,67.15
2023-09-18T06:52:35.175Z,66.35
2023-09-18T06:55:01.860Z,66.10
2023-09-18T06:57:28.851Z,65.69
2023-09-18T06:59:55.449Z,64.84
2023-09-18T07:02:22.145Z,63.58
2023-09-18T07:04:48.583Z,63.33
2023-09-18T07:07:16.090Z,62.61
2023-09-18T07:09:59.316Z,62.46
2023-09-18T07:12:29.453Z,62.31
2023-09-18T07:14:55.954Z,61.75
2023-09-18T07:17:22.422Z,61.61
2023-09-18T07:19:48.972Z,60.33
2023-09-18T07:22:15.391Z,60.53
2023-09-18T07:24:43.890Z,60.34
2023-09-18T07:27:10.451Z,60.09
2023-09-18T07:29:36.985Z,58.96
2023-09-18T07:32:04.122Z,59.16
2023-09-18T07:34:30.673Z,59.45
2023-09-18T07:36:57.877Z,58.75
2023-09-18T07:39:24.552Z,58.24
2023-09-18T07:41:51.352Z,57.26
2023-09-18T07:44:21.997Z,56.76
2023-09-18T07:46:48.771Z,57.69
2023-09-18T07:49:17.911Z,56.82
2023-09-18T07:51:45.106Z,56.78
2023-09-18T07:54:16.072Z,56.81
2023-09-18T07:56:44.317Z,56.62
2023-09-18T07:59:12.018Z,56.32
2023-09-18T08:01:38.752Z,55.86
2023-09-18T08:04:06.645Z,56.94
2023-09-18T08:06:33.584Z,55.69
2023-09-18T08:09:01.615Z,55.55
2023-09-18T08:11:28.101Z,55.20
2023-09-18T08:13:54.584Z,54.60
2023-09-18T08:16:21.162Z,54.75
2023-09-18T08:18:49.069Z,54.25
2023-09-18T08:21:15.684Z,54.18
2023-09-18T08:23:43.571Z,54.44
2023-09-18T08:26:10.146Z,53.79
2023-09-18T08:28:39.219Z,53.09
2023-09-18T08:31:05.760Z,53.28
2023-09-18T08:33:32.473Z,52.40
2023-09-18T08:35:59.528Z,52.67
2023-09-18T08:38:26.181Z,53.08
2023-09-18T08:40:55.312Z,52.05
2023-09-18T08:43:23.942Z,52.63
2023-09-18T08:45:54.287Z,52.98
2023-09-18T08:48:22.377Z,53.31
2023-09-18T08:50:49.619Z,53.09
2023-09-18T08:53:16.256Z,52.17
2023-09-18T08:55:42.830Z,52.40
2023-09-18T08:58:09.442Z,52.27
2023-09-18T09:00:38.622Z,52.30
2023-09-18T09:03:06.141Z,53.26
2023-09-18T09:05:33.649Z,53.12
2023-09-18T09:08:01.088Z,53.15
2023-09-18T09:10:27.677Z,53.20
2023-09-18T09:13:02.612Z,52.20
2023-09-18T09:15:50.982Z,52.66
2023-09-18T09:18:17.768Z,52.49
2023-09-18T09:21:05.784Z,52.79
2023-09-18T09:23:57.066Z,52.46
2023-09-18T09:26:25.563Z,52.01
2023-09-18T09:28:52.560Z,52.15
2023-09-18T09:31:26.241Z,53.29
2023-09-18T09:33:57.576Z,52.23
2023-09-18T09:36:25.463Z,52.27
2023-09-18T09:39:01.653Z,51.93
2023-09-18T09:41:29.462Z,51.70
2023-09-18T09:43:57.380Z,51.45
2023-09-18T09:46:26.629Z,51.73
2023-09-18T09:49:06.331Z,50.71
2023-09-18T09:51:34.211Z,51.25
2023-09-18T09:54:01.657Z,51.28
2023-09-18T09:56:52.302Z,51.43
2023-09-18T09:59:20.521Z,51.59
2023-09-18T10:01:51.564Z,51.03
2023-09-18T10:04:20.995Z,51.37
2023-09-18T10:07:08.268Z,51.14
2023-09-18T10:09:36.796Z,51.63
2023-09-18T10:12:10.517Z,51.11
2023-09-18T10:14:55.233Z,50.94
2023-09-18T10:17:25.814Z,50.45
2023-09-18T10:20:12.093Z,49.96
2023-09-18T10:22:41.091Z,49.84
2023-09-18T10:25:18.545Z,49.97
2023-09-18T10:27:50.462Z,49.61
2023-09-18T10:30:20.436Z,49.24
2023-09-18T10:32:47.483Z,49.26
2023-09-18T10:35:14.274Z,49.15
2023-09-18T10:37:43.139Z,48.73
2023-09-18T10:40:10.451Z,49.09
2023-09-18T10:42:40.691Z,48.57
2023-09-18T10:45:12.506Z,48.83
2023-09-18T10:47:46.591Z,48.48
2023-09-18T10:50:13.361Z,48.23
2023-09-18T10:52:44.862Z,47.91
2023-09-18T10:55:15.614Z,47.90
2023-09-18T10:57:53.392Z,48.74
2023-09-18T11:00:23.590Z,48.04
2023-09-18T11:02:53.022Z,47.79
2023-09-18T11:05:33.980Z,47.77
2023-09-18T11:08:38.208Z,47.86
2023-09-18T11:11:13.807Z,47.59
2023-09-18T11:13:46.761Z,47.47
2023-09-18T11:16:29.448Z,46.30
2023-09-18T11:19:01.719Z,46.96
2023-09-18T11:21:30.221Z,47.19
2023-09-18T11:24:06.798Z,46.61
2023-09-18T11:26:38.142Z,46.47
2023-09-18T11:29:12.501Z,46.59
2023-09-18T11:31:56.596Z,46.04
2023-09-18T11:34:38.769Z,46.73
2023-09-18T11:37:24.565Z,46.51
2023-09-18T11:39:51.221Z,45.80
2023-09-18T11:42:28.105Z,45.24
2023-09-18T11:44:56.203Z,45.91
2023-09-18T11:47:27.460Z,45.51
2023-09-18T11:50:01.132Z,45.33
2023-09-18T11:52:30.095Z,45.84
2023-09-18T11:54:59.704Z,45.53
2023-09-18T11:57:26.521Z,45.38
2023-09-18T11:59:53.572Z,45.68
2023-09-18T12:02:37.669Z,45.88
2023-09-18T12:05:27.120Z,46.16
2023-09-18T12:07:54.433Z,45.36
2023-09-18T12:10:24.395Z,45.35
2023-09-18T12:12:51.107Z,45.51
2023-09-18T12:15:24.751Z,45.80
2023-09-18T12:17:56.250Z,45.33
2023-09-18T12:20:22.851Z,44.96
2023-09-18T12:22:51.599Z,44.05
2023-09-18T12:25:19.812Z,44.66
2023-09-18T12:27:46.828Z,44.38
2023-09-18T12:30:21.549Z,44.57
2023-09-18T12:32:51.141Z,45.27
2023-09-18T12:35:19.891Z,44.84
2023-09-18T12:37:46.741Z,45.18
2023-09-18T12:40:26.790Z,45.09
2023-09-18T12:42:55.871Z,45.61
2023-09-18T12:45:23.675Z,44.59
2023-09-18T12:47:51.397Z,44.55
2023-09-18T12:50:18.109Z,43.47
2023-09-18T12:52:45.244Z,43.83
2023-09-18T12:55:28.541Z,43.31
2023-09-18T12:57:56.689Z,43.36
2023-09-18T13:00:24.370Z,43.45
2023-09-18T13:02:56.171Z,43.95
2023-09-18T13:05:33.506Z,43.58
2023-09-18T13:08:05.110Z,44.12
2023-09-18T13:10:48.699Z,43.72
2023-09-18T13:13:20.239Z,43.62
2023-09-18T13:15:48.600Z,43.67
2023-09-18T13:18:17.732Z,43.52
2023-09-18T13:20:44.850Z,43.50
2023-09-18T13:23:11.772Z,43.63
2023-09-18T13:25:43.694Z,43.43
2023-09-18T13:28:11.029Z,43.10
2023-09-18T13:30:41.403Z,43.37
2023-09-18T13:33:10.168Z,42.42
2023-09-18T13:35:44.678Z,42.27
2023-09-18T13:38:12.391Z,42.51
2023-09-18T13:40:42.823Z,42.21
2023-09-18T13:43:10.748Z,42.63
2023-09-18T13:45:37.667Z,42.82
2023-09-18T13:48:07.850Z,43.10
2023-09-18T13:50:36.080Z,43.15
2023-09-18T13:53:05.025Z,42.23
2023-09-18T13:55:32.343Z,42.42
2023-09-18T13:57:59.056Z,42.19
2023-09-18T14:00:26.916Z,42.31
2023-09-18T14:02:53.560Z,42.01
2023-09-18T14:05:21.245Z,42.49
2023-09-18T14:07:48.768Z,42.91
2023-09-18T14:10:16.044Z,43.03
2023-09-18T14:12:43.040Z,43.22
2023-09-18T14:15:10.818Z,43.47
2023-09-18T14:17:38.039Z,43.43
2023-09-18T14:20:09.039Z,43.45
2023-09-18T14:22:36.593Z,42.43
2023-09-18T14:25:07.789Z,42.67
2023-09-18T14:27:36.123Z,42.14
2023-09-18T14:30:08.792Z,42.27
2023-09-18T14:32:37.359Z,42.35
2023-09-18T14:35:06.356Z,42.69
2023-09-18T14:37:33.032Z,42.93
2023-09-18T14:39:59.610Z,42.12
2023-09-18T14:42:26.123Z,42.36
2023-09-18T14:44:52.683Z,42.65
2023-09-18T14:47:24.412Z,42.91
2023-09-18T14:49:51.429Z,42.69
2023-09-18T14:52:19.710Z,42.93
2023-09-18T14:54:46.386Z,42.80
2023-09-18T14:57:12.878Z,43.15
2023-09-18T14:59:42.469Z,42.87
2023-09-18T15:02:09.406Z,42.96
2023-09-18T15:04:36.456Z,42.90
2023-09-18T15:07:03.770Z,43.01
2023-09-18T15:09:30.510Z,42.74
2023-09-18T15:11:57.172Z,42.79
2023-09-18T15:14:23.878Z,42.96
2023-09-18T15:16:50.462Z,42.55
2023-09-18T15:19:20.509Z,42.54
2023-09-18T15:21:47.666Z,42.77
2023-09-18T15:24:14.602Z,42.30
2023-09-18T15:26:41.298Z,42.33
2023-09-18T15:29:09.746Z,42.28
2023-09-18T15:31:36.861Z,42.23
2023-09-18T15:34:04.258Z,42.31
2023-09-18T15:36:32.365Z,42.18
2023-09-18T15:39:00.167Z,42.47
2023-09-18T15:41:27.146Z,42.76
2023-09-18T15:43:53.736Z,42.37
2023-09-18T15:46:20.438Z,42.31
2023-09-18T15:48:47.259Z,42.04
2023-09-18T15:51:13.898Z,41.94
2023-09-18T15:53:40.993Z,42.13
2023-09-18T15:56:07.861Z,42.56
2023-09-18T15:58:36.022Z,42.10
2023-09-18T16:01:13.747Z,42.07
2023-09-18T16:03:48.011Z,42.37
2023-09-18T16:06:19.138Z,41.47
2023-09-18T16:08:45.849Z,41.88
2023-09-18T16:11:12.748Z,42.04
2023-09-18T16:13:39.437Z,42.16
2023-09-18T16:16:06.682Z,42.21
2023-09-18T16:18:33.499Z,42.18
2023-09-18T16:21:00.130Z,41.93
2023-09-18T16:23:28.058Z,42.19
2023-09-18T16:25:54.583Z,41.95
2023-09-18T16:28:24.031Z,42.45
2023-09-18T16:30:50.521Z,42.75
2023-09-18T16:33:17.049Z,42.43
2023-09-18T16:35:45.658Z,42.38
2023-09-18T16:38:12.155Z,42.56
2023-09-18T16:40:38.646Z,42.57
2023-09-18T16:43:05.149Z,42.29
2023-09-18T16:45:31.643Z,42.63
2023-09-18T16:47:58.729Z,42.98
2023-09-18T16:50:25.393Z,42.81
2023-09-18T16:52:51.977Z,42.46
2023-09-18T16:55:18.465Z,42.84
2023-09-18T16:57:45.184Z,43.10
2023-09-18T17:00:12.739Z,43.17
2023-09-18T17:02:39.444Z,43.34
2023-09-18T17:05:06.602Z,43.35
2023-09-18T17:07:33.128Z,43.47
2023-09-18T17:09:59.646Z,43.54
2023-09-18T17:12:26.159Z,43.89
2023-09-18T17:14:52.677Z,44.35
2023-09-18T17:17:19.182Z,44.39
2023-09-18T17:19:46.246Z,44.56
2023-09-18T17:22:12.712Z,45.04
2023-09-18T17:24:39.881Z,44.79
2023-09-18T17:27:07.853Z,45.30
2023-09-18T17:29:35.028Z,45.57
2023-09-18T17:32:01.603Z,45.87
2023-09-18T17:34:29.055Z,45.54
2023-09-18T17:36:58.864Z,46.25
2023-09-18T17:39:26.006Z,46.21
2023-09-18T17:41:53.325Z,46.31
2023-09-18T17:44:20.012Z,46.53
2023-09-18T17:46:47.375Z,46.62
2023-09-18T17:49:15.348Z,46.51
2023-09-18T17:51:42.174Z,46.78
2023-09-18T17:54:10.357Z,46.96
2023-09-18T17:56:37.087Z,46.72
2023-09-18T17:59:04.180Z,46.87
2023-09-18T18:01:30.846Z,46.74
2023-09-18T18:03:59.588Z,46.76
2023-09-18T18:06:26.582Z,47.50
2023-09-18T18:08:54.049Z,47.10
2023-09-18T18:11:21.636Z,46.90
2023-09-18T18:13:48.119Z,47.00
2023-09-18T18:16:14.695Z,46.61
2023-09-18T18:18:41.312Z,47.23
2023-09-18T18:21:08.666Z,47.23
2023-09-18T18:23:35.360Z,46.54
2023-09-18T18:26:04.389Z,46.59
2023-09-18T18:28:30.888Z,46.71
2023-09-18T18:30:57.442Z,46.95
2023-09-18T18:33:24.112Z,47.05
2023-09-18T18:35:50.807Z,46.96
2023-09-18T18:38:17.463Z,47.00
2023-09-18T18:40:44.534Z,47.10
2023-09-18T18:43:16.486Z,46.44
2023-09-18T18:45:43.954Z,46.98
2023-09-18T18:48:10.720Z,46.58
2023-09-18T18:50:40.056Z,46.63
2023-09-18T18:53:09.002Z,46.48
2023-09-18T18:55:35.812Z,46.87
2023-09-18T18:58:02.429Z,46.99
2023-09-18T19:00:29.028Z,46.93
2023-09-18T19:02:55.789Z,47.15
2023-09-18T19:05:25.295Z,47.14
2023-09-18T19:07:52.363Z,47.43
2023-09-18T19:10:18.912Z,47.37
2023-09-18T19:12:48.603Z,47.28
2023-09-18T19:15:15.557Z,46.81
2023-09-18T19:17:42.655Z,46.87
2023-09-18T19:20:09.354Z,47.26
2023-09-18T19:22:36.168Z,46.93
2023-09-18T19:25:05.794Z,46.65
2023-09-18T19:27:37.411Z,47.26
2023-09-18T19:30:08.153Z,47.73
2023-09-18T19:32:39.113Z,47.38
2023-09-18T19:35:06.488Z,47.76
2023-09-18T19:37:33.302Z,47.85
2023-09-18T19:40:00.057Z,48.18
2023-09-18T19:42:26.632Z,48.05
2023-09-18T19:44:57.119Z,48.28
2023-09-18T19:47:23.825Z,48.27
2023-09-18T19:49:50.394Z,47.66
2023-09-18T19:52:18.619Z,47.68
2023-09-18T19:54:45.750Z,48.59
2023-09-18T19:57:12.612Z,48.00
2023-09-18T19:59:39.103Z,48.48
2023-09-18T20:02:07.267Z,48.23
2023-09-18T20:04:34.935Z,48.28
2023-09-18T20:07:01.513Z,48.25
2023-09-18T20:09:28.295Z,48.73
2023-09-18T20:11:55.060Z,48.93
2023-09-18T20:14:31.103Z,48.78
2023-09-18T20:16:58.587Z,48.87
2023-09-18T20:19:25.059Z,48.93
2023-09-18T20:21:51.848Z,49.23
2023-09-18T20:24:18.417Z,48.95
2023-09-18T20:26:48.680Z,49.53
2023-09-18T20:29:16.324Z,49.77
2023-09-18T20:31:43.157Z,49.79
2023-09-18T20:34:10.215Z,49.58
2023-09-18T20:36:37.097Z,49.59
2023-09-18T20:39:05.632Z,49.88
2023-09-18T20:41:33.442Z,50.03
2023-09-18T20:44:00.787Z,50.29
2023-09-18T20:46:28.983Z,49.86
2023-09-18T20:49:04.011Z,49.90
2023-09-18T20:51:32.421Z,50.12
2023-09-18T20:54:02.343Z,50.75
2023-09-18T20:56:29.521Z,50.53
2023-09-18T20:58:58.628Z,50.49
2023-09-18T21:01:25.470Z,50.93
2023-09-18T21:03:52.816Z,51.12
2023-09-18T21:06:20.049Z,51.13
2023-09-18T21:08:46.675Z,51.13
2023-09-18T21:11:13.245Z,51.26
2023-09-18T21:13:44.938Z,51.45
2023-09-18T21:16:11.536Z,51.60
2023-09-18T21:18:38.265Z,51.48
2023-09-18T21:21:15.254Z,51.36
2023-09-18T21:23:44.765Z,51.25
2023-09-18T21:26:12.921Z,51.69
2023-09-18T21:28:39.816Z,51.42
2023-09-18T21:31:17.658Z,51.38
2023-09-18T21:33:46.888Z,51.54
2023-09-18T21:36:20.695Z,51.70
2023-09-18T21:38:50.226Z,52.06
2023-09-18T21:41:18.337Z,51.54
2023-09-18T21:43:46.204Z,51.73
2023-09-18T21:46:13.552Z,51.34
2023-09-18T21:48:40.771Z,51.76
2023-09-18T21:51:08.429Z,51.48
2023-09-18T21:56:05.570Z,51.20
2023-09-18T21:58:32.209Z,51.21
2023-09-18T22:01:01.282Z,51.43
2023-09-18T22:03:28.032Z,51.25
2023-09-18T22:05:54.660Z,51.63
2023-09-18T22:08:22.005Z,51.60
2023-09-18T22:10:48.881Z,51.71
2023-09-18T22:13:16.586Z,51.21
2023-09-18T22:15:43.201Z,51.54
2023-09-18T22:18:10.486Z,51.28
2023-09-18T22:20:37.375Z,51.45
2023-09-18T22:23:06.645Z,51.47
2023-09-18T22:25:34.262Z,51.96
2023-09-18T22:28:02.659Z,52.17
2023-09-18T22:30:30.214Z,51.81
2023-09-18T22:32:57.220Z,52.26
2023-09-18T22:35:23.936Z,51.80
2023-09-18T22:38:03.472Z,52.41
2023-09-18T22:40:29.853Z,52.54
2023-09-18T22:43:38.589Z,52.46
2023-09-18T22:46:42.712Z,52.54
2023-09-18T22:49:46.545Z,52.67
2023-09-18T22:52:37.946Z,52.70
2023-09-18T22:55:07.851Z,53.08
2023-09-18T22:57:36.889Z,52.55
2023-09-18T23:00:06.784Z,53.34
2023-09-18T23:02:43.236Z,53.00
2023-09-18T23:05:15.516Z,52.95
2023-09-18T23:07:44.767Z,53.29
2023-09-18T23:10:13.424Z,53.27
2023-09-18T23:12:40.074Z,53.26
2023-09-18T23:15:09.489Z,53.60
2023-09-18T23:17:36.289Z,53.82
2023-09-18T23:20:08.911Z,53.74
2023-09-18T23:22:38.207Z,53.78
2023-09-18T23:25:09.431Z,53.50
2023-09-18T23:27:38.157Z,53.47
2023-09-18T23:30:09.121Z,54.02
2023-09-18T23:32:35.658Z,53.67
2023-09-18T23:35:02.217Z,54.20
2023-09-18T23:37:28.692Z,53.98
2023-09-18T23:39:55.221Z,54.04
2023-09-18T23:42:21.618Z,54.14
2023-09-18T23:44:50.223Z,54.62
2023-09-18T23:47:16.769Z,54.14
2023-09-18T23:49:43.858Z,54.41
2023-09-18T23:52:10.404Z,54.58
2023-09-18T23:54:37.389Z,54.33
2023-09-18T23:57:05.465Z,54.57
2023-09-18T23:59:33.230Z,55.07
